Time;durP1;ratioP1;P1;durP2;ratioP2;P2;SDS_P1;SDS_P2;PMS_P1;PMS_P2;Temp;Humidity;BMP_temperature;BMP_pressure;BME280_temperature;BME280_humidity;BME280_pressure;Samples;Min_cycle;Max_cycle;Signal;HPM_P1;HPM_P2
2021/03/10 00:01:15;;;;;;;12.70;2.95;;;21.70;21.10;;;;;;5038323;28;20521;-65
2021/03/10 00:03:42;;;;;;;17.55;2.47;;;21.60;21.30;;;;;;5039169;28;20082;-60
2021/03/10 00:06:09;;;;;;;10.43;2.40;;;21.40;20.80;;;;;;5036241;28;20590;-64
2021/03/10 00:08:35;;;;;;;15.73;2.38;;;21.40;21.20;;;;;;5036668;28;20427;-64
2021/03/10 00:11:02;;;;;;;19.15;3.40;;;21.30;21.90;;;;;;5040524;28;20093;-64
2021/03/10 00:13:29;;;;;;;7.70;2.10;;;21.30;22.00;;;;;;5042160;28;20424;-64
2021/03/10 00:15:55;;;;;;;14.55;2.35;;;21.30;22.10;;;;;;5041047;28;20081;-64
2021/03/10 00:18:22;;;;;;;15.43;2.97;;;21.40;22.10;;;;;;5041386;28;20078;-64
2021/03/10 00:20:49;;;;;;;13.18;2.78;;;21.30;22.00;;;;;;5032813;28;20432;-63
2021/03/10 00:23:15;;;;;;;15.73;3.22;;;21.00;22.30;;;;;;5037990;28;20084;-65
2021/03/10 00:25:42;;;;;;;13.88;3.17;;;20.90;23.00;;;;;;5036305;28;20074;-62
2021/03/10 00:28:10;;;;;;;17.92;4.30;;;20.90;23.20;;;;;;5034293;28;20113;-61
2021/03/10 00:30:36;;;;;;;26.48;4.00;;;20.90;23.10;;;;;;5038498;28;20508;-61
2021/03/10 00:33:03;;;;;;;21.45;3.17;;;20.70;23.00;;;;;;5036424;28;20093;-64
2021/03/10 00:35:31;;;;;;;19.30;2.58;;;20.70;22.80;;;;;;5035274;28;20081;-64
2021/03/10 00:37:59;;;;;;;21.63;3.25;;;20.60;22.80;;;;;;5035787;28;20414;-61
2021/03/10 00:40:27;;;;;;;17.20;3.50;;;20.60;23.00;;;;;;5056162;28;20212;-65
2021/03/10 00:42:55;;;;;;;14.45;1.95;;;20.60;23.20;;;;;;5035668;28;20088;-62
2021/03/10 00:45:22;;;;;;;19.98;2.78;;;20.40;23.30;;;;;;5041198;28;20123;-63
2021/03/10 00:47:48;;;;;;;18.52;2.03;;;20.40;23.50;;;;;;5035304;28;20157;-66
2021/03/10 00:50:19;;;;;;;17.38;2.67;;;20.40;23.80;;;;;;5038696;28;20102;-65
2021/03/10 00:52:45;;;;;;;25.77;3.03;;;20.20;23.40;;;;;;5041788;28;20112;-64
2021/03/10 00:55:12;;;;;;;21.60;2.70;;;20.10;23.10;;;;;;5037652;28;20078;-63
2021/03/10 00:57:39;;;;;;;23.20;2.53;;;19.90;23.00;;;;;;5037220;28;20124;-63
2021/03/10 01:00:07;;;;;;;22.20;2.40;;;19.90;23.60;;;;;;5038151;28;20085;-62
2021/03/10 01:02:33;;;;;;;23.00;2.67;;;19.80;24.00;;;;;;5042353;28;20074;-63
2021/03/10 01:05:03;;;;;;;20.70;2.90;;;19.70;23.90;;;;;;5037800;28;20078;-64
2021/03/10 01:07:30;;;;;;;19.08;2.55;;;19.70;24.10;;;;;;5038945;28;20161;-66
2021/03/10 01:09:59;;;;;;;23.05;3.05;;;19.70;24.40;;;;;;5038669;28;20117;-62
2021/03/10 01:12:26;;;;;;;19.30;2.92;;;19.60;24.60;;;;;;5042802;28;20106;-64
2021/03/10 01:14:52;;;;;;;17.55;2.38;;;19.60;24.70;;;;;;5040197;28;20073;-63
2021/03/10 01:17:19;;;;;;;13.48;2.20;;;19.50;24.50;;;;;;5041330;28;20069;-61
2021/03/10 01:19:45;;;;;;;13.32;2.13;;;19.40;24.50;;;;;;5036112;28;20072;-64
2021/03/10 01:22:12;;;;;;;16.65;2.22;;;19.30;24.90;;;;;;5037078;28;20077;-64
2021/03/10 01:24:39;;;;;;;10.75;2.35;;;19.10;25.00;;;;;;5037353;28;20070;-62
2021/03/10 01:27:08;;;;;;;16.13;3.15;;;19.20;25.20;;;;;;5036972;28;20114;-62
2021/03/10 01:29:35;;;;;;;17.00;2.33;;;19.10;25.20;;;;;;5040809;28;20584;-64
2021/03/10 01:32:02;;;;;;;12.75;2.35;;;19.00;25.40;;;;;;5028668;28;20510;-64
2021/03/10 01:34:29;;;;;;;12.93;2.42;;;19.00;25.80;;;;;;5039305;28;20074;-61
2021/03/10 01:36:55;;;;;;;14.18;2.47;;;19.00;25.60;;;;;;5037574;28;20074;-63
2021/03/10 01:39:22;;;;;;;11.13;2.08;;;19.00;25.70;;;;;;5039379;28;20077;-61
2021/03/10 01:41:49;;;;;;;14.48;2.47;;;18.90;25.50;;;;;;5042038;28;20080;-61
2021/03/10 01:44:16;;;;;;;9.15;2.67;;;18.90;25.50;;;;;;5043794;28;20070;-62
2021/03/10 01:46:43;;;;;;;21.98;3.33;;;18.80;25.20;;;;;;5037270;28;20104;-63
2021/03/10 01:49:13;;;;;;;7.82;2.38;;;18.80;25.40;;;;;;5040513;28;20161;-61
2021/03/10 01:51:39;;;;;;;17.42;2.38;;;18.70;25.30;;;;;;5040004;28;20445;-65
2021/03/10 01:54:06;;;;;;;;;;;18.60;25.20;;;;;;5042969;28;20114;-63
2021/03/10 01:56:33;;;;;;;12.25;2.72;;;18.50;25.20;;;;;;5044993;28;19984;-62
2021/03/10 01:59:00;;;;;;;14.60;2.30;;;18.50;25.30;;;;;;5059500;28;20141;-63
2021/03/10 02:01:26;;;;;;;17.73;2.35;;;18.40;25.00;;;;;;5062385;28;20096;-58
2021/03/10 02:03:53;;;;;;;7.60;2.05;;;18.40;25.10;;;;;;5044642;28;20143;-62
2021/03/10 02:06:38;;;;;;;;;;;18.30;25.10;;;;;;5042556;28;20080;-60
2021/03/10 02:09:16;;;;;;;11.68;2.50;;;18.20;25.20;;;;;;5045536;28;19973;-60
2021/03/10 02:12:02;;;;;;;9.80;2.28;;;18.10;25.30;;;;;;5022379;28;20529;-62
2021/03/10 02:14:54;;;;;;;8.73;1.80;;;18.10;25.30;;;;;;5040555;28;20078;-60
2021/03/10 02:17:25;;;;;;;9.38;2.30;;;18.10;25.30;;;;;;5045712;28;20510;-63
2021/03/10 02:20:06;;;;;;;15.15;3.20;;;18.10;25.40;;;;;;5037644;28;20076;-63
2021/03/10 02:23:06;;;;;;;12.20;2.88;;;18.10;25.10;;;;;;5045362;28;20135;-62
2021/03/10 02:25:38;;;;;;;8.07;1.92;;;18.00;24.90;;;;;;5039604;28;20070;-62
2021/03/10 02:28:06;;;;;;;10.50;1.85;;;17.90;24.50;;;;;;5042541;28;20080;-60
2021/03/10 02:30:40;;;;;;;10.60;2.00;;;17.90;24.40;;;;;;5042819;28;20094;-61
2021/03/10 02:33:18;;;;;;;9.48;2.10;;;17.90;24.30;;;;;;5037298;28;20518;-63
2021/03/10 02:35:48;;;;;;;12.55;2.75;;;17.90;24.00;;;;;;5039939;28;21028;-61
2021/03/10 02:38:18;;;;;;;11.18;2.13;;;17.90;24.10;;;;;;5042560;28;20163;-60
2021/03/10 02:40:48;;;;;;;9.30;2.15;;;17.90;24.00;;;;;;5040688;28;20097;-61
2021/03/10 02:43:15;;;;;;;12.32;2.25;;;17.80;23.80;;;;;;5033113;28;21486;-64
2021/03/10 02:45:43;;;;;;;14.05;2.33;;;17.80;23.80;;;;;;5038791;28;20105;-61
2021/03/10 02:48:10;;;;;;;10.68;2.55;;;17.80;23.90;;;;;;5039935;28;20070;-62
2021/03/10 02:50:38;;;;;;;18.00;2.47;;;17.70;23.60;;;;;;5041773;28;20220;-62
2021/03/10 02:53:08;;;;;;;15.75;2.13;;;17.60;23.60;;;;;;5036661;28;20108;-61
2021/03/10 02:55:39;;;;;;;16.23;2.65;;;17.70;24.10;;;;;;5040707;28;20165;-62
2021/03/10 02:58:08;;;;;;;8.23;2.35;;;17.70;24.20;;;;;;5039779;28;20161;-61
2021/03/10 03:00:35;;;;;;;13.70;2.30;;;17.60;23.90;;;;;;5043670;28;20077;-63
2021/03/10 03:03:01;;;;;;;11.20;2.00;;;17.60;23.80;;;;;;5039472;28;20063;-64
2021/03/10 03:05:28;;;;;;;10.75;2.88;;;17.60;24.30;;;;;;5041914;28;20591;-63
2021/03/10 03:07:56;;;;;;;9.88;2.10;;;17.50;24.20;;;;;;5040486;28;20756;-60
2021/03/10 03:10:25;;;;;;;12.77;2.13;;;17.40;24.10;;;;;;5040107;28;20145;-63
2021/03/10 03:12:52;;;;;;;8.25;2.13;;;17.40;24.30;;;;;;5036144;28;20154;-62
2021/03/10 03:15:24;;;;;;;19.35;2.97;;;17.30;24.00;;;;;;5041512;28;20454;-62
2021/03/10 03:17:55;;;;;;;8.32;2.53;;;17.30;24.10;;;;;;5057729;28;20074;-61
2021/03/10 03:20:23;;;;;;;10.32;2.08;;;17.30;24.20;;;;;;5040825;28;20070;-62
2021/03/10 03:22:54;;;;;;;17.05;2.28;;;17.30;24.00;;;;;;5041124;28;20078;-59
2021/03/10 03:25:27;;;;;;;12.35;2.70;;;17.30;24.10;;;;;;5039560;28;20117;-61
2021/03/10 03:27:56;;;;;;;19.15;3.10;;;17.10;24.20;;;;;;5039800;28;20073;-60
2021/03/10 03:30:28;;;;;;;20.13;2.50;;;17.10;24.50;;;;;;5036362;28;20158;-61
2021/03/10 03:32:57;;;;;;;10.45;2.30;;;17.00;24.50;;;;;;5042493;28;20074;-61
2021/03/10 03:35:24;;;;;;;10.30;3.03;;;16.90;24.80;;;;;;5056594;28;20484;-61
2021/03/10 03:37:53;;;;;;;14.18;2.35;;;16.90;24.90;;;;;;5040266;28;20498;-60
2021/03/10 03:40:22;;;;;;;10.40;2.60;;;16.90;25.00;;;;;;5041589;28;20489;-60
2021/03/10 03:42:50;;;;;;;9.60;2.50;;;16.80;24.90;;;;;;5037594;28;20066;-62
2021/03/10 03:45:19;;;;;;;8.05;2.47;;;16.70;25.00;;;;;;5040173;28;20077;-63
2021/03/10 03:47:52;;;;;;;10.77;2.10;;;16.60;25.10;;;;;;5041491;28;20077;-61
2021/03/10 03:50:21;;;;;;;5.75;1.75;;;16.70;25.10;;;;;;5039909;28;20110;-61
2021/03/10 03:52:47;;;;;;;7.70;2.22;;;16.60;25.20;;;;;;5038199;28;20093;-62
2021/03/10 03:55:14;;;;;;;;;;;16.60;25.30;;;;;;5042245;28;20107;-62
2021/03/10 03:57:40;;;;;;;8.27;2.40;;;16.50;25.80;;;;;;5040133;28;19965;-61
2021/03/10 04:00:19;;;;;;;10.27;2.33;;;16.40;25.30;;;;;;5040291;28;20074;-61
2021/03/10 04:02:46;;;;;;;6.10;1.95;;;16.40;25.50;;;;;;5036815;28;21457;-61
2021/03/10 04:05:17;;;;;;;10.13;2.25;;;16.30;25.50;;;;;;5037014;28;20461;-60
2021/03/10 04:07:50;;;;;;;10.60;2.13;;;16.40;25.80;;;;;;5035130;28;20070;-61
2021/03/10 04:10:18;;;;;;;13.95;2.90;;;16.40;25.80;;;;;;5037964;28;20106;-61
2021/03/10 04:12:44;;;;;;;9.93;2.08;;;16.20;25.90;;;;;;5037784;28;20104;-61
2021/03/10 04:15:15;;;;;;;15.60;2.22;;;16.20;25.80;;;;;;5038631;28;20540;-63
2021/03/10 04:17:42;;;;;;;16.85;3.13;;;16.20;25.50;;;;;;5038675;28;20069;-62
2021/03/10 04:20:14;;;;;;;9.30;2.10;;;16.20;25.60;;;;;;5037363;28;20077;-61
2021/03/10 04:22:41;;;;;;;14.38;2.67;;;16.10;25.50;;;;;;5040650;28;20530;-59
2021/03/10 04:25:11;;;;;;;8.25;2.20;;;16.10;25.30;;;;;;5037512;28;20082;-62
2021/03/10 04:27:39;;;;;;;11.30;2.17;;;16.10;25.60;;;;;;5033566;28;20157;-63
2021/03/10 04:30:08;;;;;;;13.55;2.05;;;16.10;25.20;;;;;;5037370;28;20117;-60
2021/03/10 04:32:36;;;;;;;15.05;3.28;;;16.00;25.30;;;;;;5037174;28;20558;-60
2021/03/10 04:35:04;;;;;;;16.98;2.58;;;16.00;25.50;;;;;;5035441;28;20077;-62
2021/03/10 04:37:30;;;;;;;12.13;2.50;;;15.90;25.50;;;;;;5034286;28;20078;-61
2021/03/10 04:39:57;;;;;;;16.50;2.50;;;15.90;25.60;;;;;;5036207;28;20098;-59
2021/03/10 04:42:24;;;;;;;4.60;2.22;;;15.90;25.60;;;;;;5040359;28;20073;-58
2021/03/10 04:44:50;;;;;;;14.38;2.90;;;15.80;25.60;;;;;;5052724;28;20081;-62
2021/03/10 04:47:16;;;;;;;;;;;15.80;25.70;;;;;;5039627;28;20076;-62
2021/03/10 04:49:43;;;;;;;8.82;2.28;;;15.80;25.10;;;;;;5046155;28;20434;-59
2021/03/10 04:52:09;;;;;;;;;;;15.80;24.70;;;;;;5039935;28;20088;-62
2021/03/10 04:54:36;;;;;;;11.65;2.25;;;15.80;24.40;;;;;;5034454;28;20086;-61
2021/03/10 04:57:03;;;;;;;9.77;2.15;;;15.80;23.90;;;;;;5041665;28;20070;-62
2021/03/10 04:59:29;;;;;;;15.48;2.28;;;15.80;24.00;;;;;;5036988;28;20070;-60
2021/03/10 05:01:55;;;;;;;;;;;15.80;24.10;;;;;;5038596;28;20088;-60
2021/03/10 05:04:22;;;;;;;7.63;1.98;;;15.80;24.20;;;;;;5036993;28;19966;-61
2021/03/10 05:06:48;;;;;;;;;;;15.80;24.50;;;;;;5049445;28;20150;-60
2021/03/10 05:09:14;;;;;;;14.93;2.42;;;15.70;25.10;;;;;;5037960;28;20402;-61
2021/03/10 05:11:41;;;;;;;;;;;15.70;25.20;;;;;;5039149;28;20110;-58
2021/03/10 05:14:07;;;;;;;15.65;2.13;;;15.60;25.50;;;;;;5036528;28;19968;-61
2021/03/10 05:16:34;;;;;;;9.85;2.13;;;15.60;25.60;;;;;;5044896;28;20078;-59
2021/03/10 05:19:00;;;;;;;;;;;15.50;25.80;;;;;;5040361;28;20062;-62
2021/03/10 05:21:26;;;;;;;13.38;2.78;;;15.60;26.10;;;;;;5040860;28;20051;-61
2021/03/10 05:23:53;;;;;;;;;;;15.50;26.60;;;;;;5034864;28;20082;-63
2021/03/10 05:26:21;;;;;;;15.02;2.13;;;15.40;26.70;;;;;;5039239;28;20410;-61
2021/03/10 05:28:47;;;;;;;;;;;15.40;26.80;;;;;;5023039;28;20102;-63
2021/03/10 05:31:14;;;;;;;20.48;2.22;;;15.40;27.40;;;;;;5038845;28;19984;-59
2021/03/10 05:33:40;;;;;;;;;;;15.30;28.00;;;;;;5041398;28;20156;-62
2021/03/10 05:36:08;;;;;;;18.20;2.88;;;15.20;28.50;;;;;;5057652;28;19957;-62
2021/03/10 05:38:34;;;;;;;16.10;2.83;;;15.20;28.60;;;;;;5042368;28;20074;-62
2021/03/10 05:41:00;;;;;;;;;;;15.20;29.10;;;;;;5044151;28;20076;-61
2021/03/10 05:43:29;;;;;;;14.77;2.05;;;15.00;30.10;;;;;;5041324;28;20967;-62
2021/03/10 05:45:55;;;;;;;10.93;2.00;;;14.90;30.80;;;;;;5041759;28;20078;-63
2021/03/10 05:48:22;;;;;;;;;;;14.90;31.50;;;;;;5041282;28;20078;-60
2021/03/10 05:50:48;;;;;;;11.98;1.95;;;14.80;32.90;;;;;;5043301;28;20441;-59
2021/03/10 05:53:19;;;;;;;8.63;1.80;;;14.80;33.70;;;;;;5040667;28;20114;-59
2021/03/10 05:55:47;;;;;;;23.45;2.53;;;14.70;34.60;;;;;;5043316;28;20481;-60
2021/03/10 05:58:14;;;;;;;19.80;2.70;;;14.70;35.70;;;;;;5036947;28;20199;-63
2021/03/10 06:00:45;;;;;;;22.60;3.22;;;14.60;35.90;;;;;;5039482;28;20104;-62
2021/03/10 06:03:13;;;;;;;13.05;2.22;;;14.60;36.20;;;;;;5041103;28;20081;-60
2021/03/10 06:05:40;;;;;;;23.17;2.40;;;14.50;36.70;;;;;;5040700;28;20581;-63
2021/03/10 06:08:08;;;;;;;9.30;2.17;;;14.50;37.40;;;;;;5043838;28;20550;-60
2021/03/10 06:10:51;;;;;;;9.00;2.20;;;14.50;37.70;;;;;;5039141;28;20104;-63
2021/03/10 06:13:44;;;;;;;10.38;2.10;;;14.40;37.90;;;;;;5042756;28;20169;-61
2021/03/10 06:16:21;;;;;;;11.80;2.60;;;14.40;38.00;;;;;;5042610;28;20077;-62
2021/03/10 06:18:48;;;;;;;8.02;2.00;;;14.40;38.10;;;;;;5039959;28;20567;-61
2021/03/10 06:21:17;;;;;;;15.20;2.15;;;14.40;38.20;;;;;;5039691;28;20124;-59
2021/03/10 06:24:01;;;;;;;8.25;1.88;;;14.40;38.00;;;;;;5047356;28;20070;-61
2021/03/10 06:26:30;;;;;;;10.63;2.28;;;14.50;37.70;;;;;;5040733;28;20070;-62
2021/03/10 06:28:59;;;;;;;10.27;1.70;;;14.50;37.60;;;;;;5042424;28;20069;-60
2021/03/10 06:31:42;;;;;;;7.93;1.80;;;14.50;37.50;;;;;;5039404;28;20085;-61
2021/03/10 06:34:11;;;;;;;9.82;2.10;;;14.50;37.70;;;;;;5052497;28;20522;-62
2021/03/10 06:36:51;;;;;;;13.25;2.30;;;14.50;38.40;;;;;;5037441;28;20554;-59
2021/03/10 06:39:29;;;;;;;9.25;2.00;;;14.40;38.10;;;;;;5037986;28;20129;-58
2021/03/10 06:41:58;;;;;;;12.82;2.10;;;14.50;38.20;;;;;;5037566;28;20081;-63
2021/03/10 06:44:28;;;;;;;9.02;1.98;;;14.50;38.40;;;;;;5034107;28;20113;-61
2021/03/10 06:47:06;;;;;;;9.00;2.33;;;14.50;38.40;;;;;;5022720;28;20081;-62
2021/03/10 06:49:34;;;;;;;9.45;2.00;;;14.40;38.40;;;;;;5035953;28;20195;-62
2021/03/10 06:52:06;;;;;;;10.63;1.65;;;14.50;38.70;;;;;;5039358;28;20089;-62
2021/03/10 06:54:36;;;;;;;9.18;1.90;;;14.40;39.00;;;;;;5038281;28;20094;-63
2021/03/10 06:57:14;;;;;;;8.65;1.70;;;14.30;39.50;;;;;;5036469;28;20105;-63
2021/03/10 06:59:45;;;;;;;8.18;1.92;;;14.40;39.60;;;;;;5035613;28;20102;-61
2021/03/10 07:02:18;;;;;;;9.80;2.38;;;14.30;39.90;;;;;;5038840;28;20521;-60
2021/03/10 07:04:57;;;;;;;10.93;1.52;;;14.30;40.30;;;;;;5034480;28;20105;-61
2021/03/10 07:07:32;;;;;;;4.28;2.00;;;14.20;40.40;;;;;;5038151;28;20069;-62
2021/03/10 07:09:59;;;;;;;10.23;2.13;;;14.20;40.70;;;;;;5035897;28;20077;-63
2021/03/10 07:12:29;;;;;;;9.65;2.15;;;14.30;40.80;;;;;;5036459;28;20099;-61
2021/03/10 07:14:55;;;;;;;11.55;2.08;;;14.30;40.40;;;;;;5034170;28;20092;-61
2021/03/10 07:17:25;;;;;;;;;;;14.30;39.90;;;;;;5049973;28;20122;-59
2021/03/10 07:19:52;;;;;;;8.52;2.00;;;14.30;39.60;;;;;;5038218;28;20076;-62
2021/03/10 07:22:35;;;;;;;9.55;1.75;;;14.40;39.20;;;;;;5038830;28;20093;-61
2021/03/10 07:25:02;;;;;;;13.18;1.73;;;14.50;39.30;;;;;;5034965;28;20597;-61
2021/03/10 07:27:44;;;;;;;;;;;14.50;39.50;;;;;;5038942;28;20164;-61
2021/03/10 07:30:11;;;;;;;9.02;1.52;;;14.50;39.90;;;;;;5034910;28;19965;-59
2021/03/10 07:32:39;;;;;;;5.53;1.75;;;14.40;40.30;;;;;;5055099;28;20074;-62
2021/03/10 07:35:11;;;;;;;6.40;1.65;;;14.50;40.40;;;;;;5036198;28;20152;-65
2021/03/10 07:37:52;;;;;;;10.40;1.83;;;14.50;40.80;;;;;;5038490;28;20177;-63
2021/03/10 07:40:20;;;;;;;6.43;1.45;;;14.50;40.50;;;;;;5037625;28;20094;-63
2021/03/10 07:42:57;;;;;;;7.35;2.00;;;14.50;40.70;;;;;;5038142;28;20192;-60
2021/03/10 07:45:25;;;;;;;;;;;14.60;41.10;;;;;;5041522;28;20080;-62
2021/03/10 07:47:58;;;;;;;7.68;1.70;;;14.60;41.30;;;;;;5037950;28;20414;-61
2021/03/10 07:50:44;;;;;;;12.48;1.98;;;14.50;41.20;;;;;;5040048;28;20073;-66
2021/03/10 07:53:11;;;;;;;9.55;2.08;;;14.40;41.70;;;;;;5039125;28;20114;-64
2021/03/10 07:55:45;;;;;;;7.65;2.10;;;14.50;41.60;;;;;;5038318;28;20095;-63
2021/03/10 07:58:13;;;;;;;7.57;2.10;;;14.40;41.80;;;;;;5039324;28;20073;-63
2021/03/10 08:00:40;;;;;;;10.43;1.55;;;14.50;42.10;;;;;;5038235;28;20176;-63
2021/03/10 08:03:07;;;;;;;8.35;1.73;;;14.40;42.80;;;;;;5038107;28;20093;-63
2021/03/10 08:05:35;;;;;;;8.90;2.00;;;14.40;42.60;;;;;;5037013;28;20165;-61
2021/03/10 08:08:32;;;;;;;8.18;1.80;;;14.40;42.60;;;;;;5038100;28;20066;-62
2021/03/10 08:11:09;;;;;;;12.02;1.70;;;14.40;42.70;;;;;;5036241;28;20158;-62
2021/03/10 08:13:39;;;;;;;8.52;1.60;;;14.40;43.30;;;;;;5034114;28;20082;-63
2021/03/10 08:16:08;;;;;;;6.05;1.80;;;14.50;43.50;;;;;;5042214;28;21662;-62
2021/03/10 08:18:36;;;;;;;8.23;1.92;;;14.50;43.20;;;;;;5039914;28;20101;-62
2021/03/10 08:21:11;;;;;;;10.32;1.80;;;14.50;43.70;;;;;;5038991;28;20116;-60
2021/03/10 08:23:37;;;;;;;10.93;1.75;;;14.40;43.50;;;;;;5039586;28;20558;-62
2021/03/10 08:26:07;;;;;;;11.43;1.88;;;14.40;44.00;;;;;;5055852;28;20073;-62
2021/03/10 08:28:38;;;;;;;10.93;2.10;;;14.30;43.50;;;;;;5039807;28;20152;-62
2021/03/10 08:31:10;;;;;;;8.32;1.80;;;14.30;43.70;;;;;;5036749;28;20081;-62
2021/03/10 08:33:46;;;;;;;9.82;1.80;;;14.20;44.00;;;;;;5033535;28;20537;-61
2021/03/10 08:36:16;;;;;;;8.53;2.07;;;14.30;44.30;;;;;;5037138;28;20078;-62
2021/03/10 08:38:45;;;;;;;14.93;2.20;;;14.30;44.40;;;;;;5038990;28;20683;-62
2021/03/10 08:41:12;;;;;;;8.68;1.83;;;14.20;44.10;;;;;;5040963;28;20125;-60
2021/03/10 08:43:38;;;;;;;;;;;14.20;44.70;;;;;;5037586;28;20575;-62
2021/03/10 08:46:05;;;;;;;4.50;1.70;;;14.20;44.70;;;;;;5038804;28;19957;-62
2021/03/10 08:48:33;;;;;;;8.80;1.83;;;14.20;45.20;;;;;;5036493;28;20523;-62
2021/03/10 08:51:04;;;;;;;5.20;1.23;;;14.10;45.20;;;;;;5038046;28;20161;-62
2021/03/10 08:53:31;;;;;;;7.25;1.70;;;14.00;45.30;;;;;;5041683;28;20117;-62
2021/03/10 08:56:08;;;;;;;5.30;1.50;;;14.00;45.60;;;;;;5037240;28;20152;-62
2021/03/10 08:58:35;;;;;;;8.45;1.85;;;14.00;46.60;;;;;;5040932;28;20092;-61
2021/03/10 09:01:11;;;;;;;;;;;13.90;46.80;;;;;;5040828;28;20171;-62
2021/03/10 09:03:43;;;;;;;12.07;2.72;;;13.90;47.20;;;;;;5039063;28;19965;-62
2021/03/10 09:06:10;;;;;;;8.18;2.05;;;13.80;47.50;;;;;;5038908;28;20070;-62
2021/03/10 09:08:37;;;;;;;10.48;2.55;;;13.80;48.00;;;;;;5044878;28;20112;-62
2021/03/10 09:11:04;;;;;;;17.15;3.13;;;13.80;48.50;;;;;;5042861;28;20487;-60
2021/03/10 09:13:30;;;;;;;10.15;2.70;;;13.90;48.90;;;;;;5041984;28;20082;-62
2021/03/10 09:15:56;;;;;;;;;;;13.90;49.10;;;;;;5045321;28;20437;-61
2021/03/10 09:18:32;;;;;;;11.38;2.92;;;13.90;49.20;;;;;;5043393;28;20019;-61
2021/03/10 09:20:59;;;;;;;13.52;2.80;;;14.00;49.40;;;;;;5038890;28;20540;-62
2021/03/10 09:23:28;;;;;;;;;;;14.00;49.80;;;;;;5046080;28;20538;-62
2021/03/10 09:25:58;;;;;;;19.42;2.70;;;14.00;50.10;;;;;;5040467;28;19957;-61
2021/03/10 09:28:34;;;;;;;13.57;2.55;;;13.90;49.90;;;;;;5038986;28;20074;-62
2021/03/10 09:31:15;;;;;;;7.63;2.20;;;14.00;49.90;;;;;;5037252;28;20061;-62
2021/03/10 09:33:42;;;;;;;9.00;2.70;;;14.00;50.00;;;;;;5041156;28;20164;-60
2021/03/10 09:36:10;;;;;;;11.38;2.65;;;13.90;50.00;;;;;;5040018;28;20421;-61
2021/03/10 09:38:37;;;;;;;8.52;2.33;;;13.90;50.20;;;;;;5040971;28;20088;-61
2021/03/10 09:41:05;;;;;;;;;;;13.90;50.10;;;;;;5039515;28;20526;-62
2021/03/10 09:43:34;;;;;;;6.22;2.05;;;14.00;50.00;;;;;;5057633;28;20472;-61
2021/03/10 09:46:08;;;;;;;7.63;2.17;;;14.00;50.00;;;;;;5040999;28;20177;-61
2021/03/10 09:48:38;;;;;;;7.45;2.60;;;13.90;50.00;;;;;;5036106;28;20092;-62
2021/03/10 09:51:19;;;;;;;7.82;2.50;;;14.00;50.00;;;;;;5041085;28;20077;-62
2021/03/10 09:53:51;;;;;;;10.80;2.38;;;14.00;49.20;;;;;;5039254;28;20117;-61
2021/03/10 09:56:19;;;;;;;13.93;2.40;;;14.00;48.80;;;;;;5042786;28;20073;-62
2021/03/10 09:58:57;;;;;;;14.30;2.28;;;14.00;48.60;;;;;;5042971;28;20625;-63
2021/03/10 10:01:25;;;;;;;15.38;2.22;;;14.10;48.60;;;;;;5041958;28;20101;-60
2021/03/10 10:03:53;;;;;;;11.13;2.70;;;14.00;48.50;;;;;;5042467;28;20073;-61
2021/03/10 10:06:20;;;;;;;13.82;2.28;;;14.10;48.90;;;;;;5042141;28;20080;-62
2021/03/10 10:08:48;;;;;;;15.70;2.40;;;14.10;48.90;;;;;;5038067;28;20089;-61
2021/03/10 10:11:20;;;;;;;12.98;2.20;;;14.10;49.10;;;;;;5038561;28;20445;-62
2021/03/10 10:13:50;;;;;;;13.65;2.30;;;14.00;49.40;;;;;;5038280;28;20070;-59
2021/03/10 10:16:17;;;;;;;9.30;2.47;;;14.10;49.50;;;;;;5043924;28;21356;-62
2021/03/10 10:18:45;;;;;;;9.80;2.83;;;14.10;49.70;;;;;;5034918;28;20078;-60
2021/03/10 10:21:12;;;;;;;22.98;3.05;;;14.10;49.80;;;;;;5040871;28;20102;-57
2021/03/10 10:23:39;;;;;;;12.85;2.05;;;14.10;49.80;;;;;;5040278;28;20073;-60
2021/03/10 10:26:06;;;;;;;11.07;2.03;;;14.10;49.80;;;;;;5040758;28;20081;-62
2021/03/10 10:28:33;;;;;;;26.48;2.20;;;14.10;49.70;;;;;;5037579;28;20074;-59
2021/03/10 10:30:59;;;;;;;;;;;14.20;49.50;;;;;;5044890;28;20070;-62
2021/03/10 10:33:28;;;;;;;18.83;3.08;;;14.20;49.50;;;;;;5037646;28;20426;-61
2021/03/10 10:35:55;;;;;;;7.22;1.90;;;14.20;49.70;;;;;;5039925;28;20113;-60
2021/03/10 10:38:22;;;;;;;27.00;2.22;;;14.20;49.20;;;;;;5054864;28;20084;-58
2021/03/10 10:40:48;;;;;;;;;;;14.20;48.60;;;;;;5040537;28;20105;-61
2021/03/10 10:43:15;;;;;;;11.20;2.03;;;14.20;47.80;;;;;;5039408;28;19962;-59
2021/03/10 10:45:41;;;;;;;17.23;1.85;;;14.20;47.70;;;;;;5054004;28;20077;-60
2021/03/10 10:48:08;;;;;;;13.02;1.52;;;14.20;47.70;;;;;;5037444;28;20089;-59
2021/03/10 10:50:35;;;;;;;14.77;1.58;;;14.20;47.50;;;;;;5037301;28;20081;-59
2021/03/10 10:53:02;;;;;;;;;;;14.20;47.40;;;;;;5055242;28;20172;-61
2021/03/10 10:55:28;;;;;;;16.77;2.05;;;14.30;47.20;;;;;;5037085;28;20410;-62
2021/03/10 10:57:56;;;;;;;10.40;2.42;;;14.30;46.90;;;;;;5018408;28;20169;-62
2021/03/10 11:00:26;;;;;;;8.00;1.33;;;14.30;47.20;;;;;;5022217;28;20106;-62
2021/03/10 11:02:53;;;;;;;12.82;1.67;;;14.30;47.50;;;;;;5039011;28;20518;-60
2021/03/10 11:05:19;;;;;;;;;;;14.30;47.60;;;;;;5040049;28;20089;-61
2021/03/10 11:07:46;;;;;;;6.00;1.55;;;14.30;47.90;;;;;;5036298;28;19969;-60
2021/03/10 11:10:12;;;;;;;;;;;14.30;48.00;;;;;;5040400;28;20070;-61
2021/03/10 11:12:39;;;;;;;10.25;1.70;;;14.20;48.00;;;;;;5036522;28;20067;-61
2021/03/10 11:15:08;;;;;;;7.90;1.88;;;14.20;48.00;;;;;;5036417;28;20148;-63
2021/03/10 11:17:34;;;;;;;7.65;1.40;;;14.20;48.10;;;;;;5035496;28;20495;-60
2021/03/10 11:20:01;;;;;;;14.70;2.05;;;14.10;48.10;;;;;;5053860;28;20139;-62
2021/03/10 11:22:27;;;;;;;;;;;14.10;48.10;;;;;;5038766;28;20165;-57
2021/03/10 11:24:55;;;;;;;12.32;1.45;;;14.20;47.80;;;;;;5037154;28;19980;-61
2021/03/10 11:27:23;;;;;;;6.35;1.70;;;14.20;47.70;;;;;;5038605;28;20081;-59
2021/03/10 11:29:50;;;;;;;8.20;2.22;;;14.10;47.40;;;;;;5037288;28;20074;-62
2021/03/10 11:32:16;;;;;;;5.43;1.55;;;14.10;47.30;;;;;;5039022;28;20078;-60
2021/03/10 11:34:43;;;;;;;10.77;2.00;;;14.20;47.00;;;;;;5040350;28;20085;-59
2021/03/10 11:37:11;;;;;;;9.00;1.70;;;14.20;46.50;;;;;;5053058;28;20096;-60
2021/03/10 11:39:37;;;;;;;7.78;1.70;;;14.20;46.30;;;;;;5036751;28;20169;-62
2021/03/10 11:42:05;;;;;;;5.03;1.40;;;14.30;46.20;;;;;;5038222;28;20094;-61
2021/03/10 11:44:31;;;;;;;8.80;1.70;;;14.40;45.40;;;;;;5034459;28;20066;-57
2021/03/10 11:46:58;;;;;;;11.48;1.67;;;14.40;44.20;;;;;;5035726;28;20164;-60
2021/03/10 11:49:24;;;;;;;;;;;14.50;44.10;;;;;;5037020;28;20074;-61
2021/03/10 11:51:51;;;;;;;4.45;1.38;;;14.50;44.90;;;;;;5038862;28;19962;-61
2021/03/10 11:54:17;;;;;;;15.77;1.90;;;14.50;45.50;;;;;;5037293;28;20188;-57
2021/03/10 11:56:43;;;;;;;;;;;14.40;46.00;;;;;;5035419;28;20135;-60
2021/03/10 11:59:10;;;;;;;12.45;1.90;;;14.40;46.40;;;;;;5039473;28;19957;-58
2021/03/10 12:01:36;;;;;;;;;;;14.40;46.60;;;;;;5034820;28;20604;-61
2021/03/10 12:04:03;;;;;;;7.15;1.40;;;14.30;47.10;;;;;;5036605;28;20003;-59
2021/03/10 12:06:29;;;;;;;12.75;1.73;;;14.30;47.30;;;;;;5031920;28;20152;-57
2021/03/10 12:08:55;;;;;;;;;;;14.30;47.70;;;;;;5052652;28;20119;-57
2021/03/10 12:11:22;;;;;;;9.07;1.65;;;14.30;47.70;;;;;;5035456;28;20011;-60
2021/03/10 12:13:48;;;;;;;;;;;14.30;48.00;;;;;;5039847;28;20113;-62
2021/03/10 12:16:14;;;;;;;5.55;1.70;;;14.30;48.00;;;;;;5034204;28;19968;-60
2021/03/10 12:18:41;;;;;;;;;;;14.20;48.80;;;;;;5037433;28;20082;-62
2021/03/10 12:21:07;;;;;;;41.10;18.25;;;14.20;48.30;;;;;;5034810;28;20009;-59
2021/03/10 12:23:35;;;;;;;22.20;10.27;;;14.10;48.50;;;;;;5038145;28;20112;-60
2021/03/10 12:26:02;;;;;;;7.60;2.25;;;14.00;48.70;;;;;;5039044;28;20069;-62
2021/03/10 12:28:29;;;;;;;4.53;1.30;;;14.00;49.00;;;;;;5039613;28;20070;-59
2021/03/10 12:30:56;;;;;;;;;;;14.00;49.10;;;;;;5035911;28;20565;-60
2021/03/10 12:33:22;;;;;;;5.90;1.50;;;14.00;49.20;;;;;;5036736;28;20037;-61
2021/03/10 12:35:48;;;;;;;;;;;14.00;49.20;;;;;;5038718;28;20086;-59
2021/03/10 12:38:15;;;;;;;8.48;1.40;;;14.00;49.10;;;;;;5034889;28;20334;-61
2021/03/10 12:40:41;;;;;;;;;;;13.90;49.10;;;;;;5038114;28;20167;-60
2021/03/10 12:43:08;;;;;;;4.90;1.60;;;13.90;49.10;;;;;;5035809;28;21310;-62
2021/03/10 12:45:35;;;;;;;7.40;1.50;;;14.00;49.30;;;;;;5034159;28;20090;-62
2021/03/10 12:48:02;;;;;;;;;;;13.90;49.20;;;;;;5035188;28;20104;-62
2021/03/10 12:50:28;;;;;;;5.93;1.25;;;13.90;49.10;;;;;;5040545;28;20436;-61
2021/03/10 12:52:55;;;;;;;3.45;1.35;;;13.90;49.00;;;;;;5036971;28;20101;-61
2021/03/10 12:55:21;;;;;;;;;;;13.90;49.20;;;;;;5040033;28;20084;-60
2021/03/10 12:57:47;;;;;;;6.00;1.60;;;14.00;49.60;;;;;;5037677;28;19996;-61
2021/03/10 13:00:15;;;;;;;;;;;13.90;49.00;;;;;;5037309;28;20236;-62
2021/03/10 13:02:41;;;;;;;5.82;1.60;;;13.90;48.90;;;;;;5038999;28;20019;-63